sensor_id;sensor_type;location;lat;lon;timestamp;pressure;altitude;pressure_sealevel;temperature;humidity
13314;BME280;6725;48.112;11.604;2023-07-20T00:01:43;95115.09;;;23.06;100.00
13314;BME280;6725;48.112;11.604;2023-07-20T00:04:10;95114.31;;;23.06;100.00
13314;BME280;6725;48.112;11.604;2023-07-20T00:06:36;95110.25;;;23.07;100.00
13314;BME280;6725;48.112;11.604;2023-07-20T00:09:08;95117.94;;;23.12;100.00
13314;BME280;6725;48.112;11.604;2023-07-20T00:11:36;95114.59;;;23.08;100.00
13314;BME280;6725;48.112;11.604;2023-07-20T00:14:04;95102.13;;;23.03;100.00
13314;BME280;6725;48.112;11.604;2023-07-20T00:16:29;95096.22;;;22.96;100.00
13314;BME280;6725;48.112;11.604;2023-07-20T00:18:55;95103.06;;;22.95;100.00
13314;BME280;6725;48.112;11.604;2023-07-20T00:21:20;95106.75;;;22.86;100.00
13314;BME280;6725;48.112;11.604;2023-07-20T00:23:45;95102.38;;;22.80;100.00
13314;BME280;6725;48.112;11.604;2023-07-20T00:26:11;95104.31;;;22.74;100.00
13314;BME280;6725;48.112;11.604;2023-07-20T00:28:36;95102.44;;;22.65;100.00
13314;BME280;6725;48.112;11.604;2023-07-20T00:31:01;95102.44;;;22.65;100.00
13314;BME280;6725;48.112;11.604;2023-07-20T00:33:28;95102.44;;;22.65;100.00
13314;BME280;6725;48.112;11.604;2023-07-20T00:35:53;95117.50;;;22.53;100.00
13314;BME280;6725;48.112;11.604;2023-07-20T00:38:19;95122.88;;;22.57;100.00
13314;BME280;6725;48.112;11.604;2023-07-20T00:40:44;95124.41;;;22.58;100.00
13314;BME280;6725;48.112;11.604;2023-07-20T00:43:09;95130.94;;;22.55;100.00
13314;BME280;6725;48.112;11.604;2023-07-20T00:45:36;95134.97;;;22.54;100.00
13314;BME280;6725;48.112;11.604;2023-07-20T00:48:02;95114.59;;;22.62;100.00
13314;BME280;6725;48.112;11.604;2023-07-20T00:50:29;95126.34;;;22.52;100.00
13314;BME280;6725;48.112;11.604;2023-07-20T00:52:56;95113.25;;;22.58;100.00
13314;BME280;6725;48.112;11.604;2023-07-20T00:55:23;95125.91;;;22.59;100.00
13314;BME280;6725;48.112;11.604;2023-07-20T00:57:49;95123.97;;;22.65;100.00
13314;BME280;6725;48.112;11.604;2023-07-20T01:00:15;95122.22;;;22.67;100.00
13314;BME280;6725;48.112;11.604;2023-07-20T01:02:41;95132.88;;;22.69;100.00
13314;BME280;6725;48.112;11.604;2023-07-20T01:05:06;95138.72;;;22.71;100.00
13314;BME280;6725;48.112;11.604;2023-07-20T01:07:36;95143.31;;;22.74;100.00
13314;BME280;6725;48.112;11.604;2023-07-20T01:10:12;95128.13;;;22.75;100.00
13314;BME280;6725;48.112;11.604;2023-07-20T01:12:43;95124.31;;;22.72;100.00
13314;BME280;6725;48.112;11.604;2023-07-20T01:15:12;95126.59;;;22.74;100.00
13314;BME280;6725;48.112;11.604;2023-07-20T01:17:37;95120.50;;;22.70;100.00
13314;BME280;6725;48.112;11.604;2023-07-20T01:20:03;95117.63;;;22.64;100.00
13314;BME280;6725;48.112;11.604;2023-07-20T01:29:09;95132.88;;;22.48;100.00
13314;BME280;6725;48.112;11.604;2023-07-20T01:31:37;95118.94;;;22.48;100.00
13314;BME280;6725;48.112;11.604;2023-07-20T01:34:05;95124.81;;;22.51;100.00
13314;BME280;6725;48.112;11.604;2023-07-20T01:36:34;95122.03;;;22.51;100.00
13314;BME280;6725;48.112;11.604;2023-07-20T01:39:00;95126.34;;;22.52;100.00
13314;BME280;6725;48.112;11.604;2023-07-20T01:41:26;95123.28;;;22.50;100.00
13314;BME280;6725;48.112;11.604;2023-07-20T01:43:51;95125.41;;;22.40;100.00
13314;BME280;6725;48.112;11.604;2023-07-20T01:46:16;95134.81;;;22.42;100.00
13314;BME280;6725;48.112;11.604;2023-07-20T01:48:42;95136.34;;;22.43;100.00
13314;BME280;6725;48.112;11.604;2023-07-20T01:51:07;95125.50;;;22.45;100.00
13314;BME280;6725;48.112;11.604;2023-07-20T01:53:33;95134.59;;;22.46;100.00
13314;BME280;6725;48.112;11.604;2023-07-20T01:55:58;95139.69;;;22.48;100.00
13314;BME280;6725;48.112;11.604;2023-07-20T01:58:23;95134.81;;;22.42;100.00
13314;BME280;6725;48.112;11.604;2023-07-20T02:00:49;95128.69;;;22.38;100.00
13314;BME280;6725;48.112;11.604;2023-07-20T02:03:15;95128.13;;;22.34;100.00
13314;BME280;6725;48.112;11.604;2023-07-20T02:05:43;95132.91;;;22.34;100.00
13314;BME280;6725;48.112;11.604;2023-07-20T02:08:09;95133.63;;;22.29;100.00
13314;BME280;6725;48.112;11.604;2023-07-20T02:10:35;95138.66;;;22.30;100.00
13314;BME280;6725;48.112;11.604;2023-07-20T02:13:00;95134.84;;;22.28;100.00
13314;BME280;6725;48.112;11.604;2023-07-20T02:15:25;95142.44;;;22.27;100.00
13314;BME280;6725;48.112;11.604;2023-07-20T02:17:51;95141.59;;;22.21;100.00
13314;BME280;6725;48.112;11.604;2023-07-20T02:20:16;95139.50;;;22.16;100.00
13314;BME280;6725;48.112;11.604;2023-07-20T02:22:42;95125.59;;;22.16;100.00
13314;BME280;6725;48.112;11.604;2023-07-20T02:25:07;95134.44;;;22.15;100.00
13314;BME280;6725;48.112;11.604;2023-07-20T02:27:34;95133.66;;;22.14;100.00
13314;BME280;6725;48.112;11.604;2023-07-20T02:29:59;95141.44;;;22.10;100.00
13314;BME280;6725;48.112;11.604;2023-07-20T02:32:25;95149.50;;;22.08;100.00
13314;BME280;6725;48.112;11.604;2023-07-20T02:34:50;95135.09;;;22.10;100.00
13314;BME280;6725;48.112;11.604;2023-07-20T02:37:16;95134.34;;;22.09;100.00
13314;BME280;6725;48.112;11.604;2023-07-20T02:39:41;95132.78;;;22.08;100.00
13314;BME280;6725;48.112;11.604;2023-07-20T02:42:07;95126.50;;;22.08;100.00
13314;BME280;6725;48.112;11.604;2023-07-20T02:44:32;95131.19;;;22.02;100.00
13314;BME280;6725;48.112;11.604;2023-07-20T02:46:58;95134.19;;;21.98;100.00
13314;BME280;6725;48.112;11.604;2023-07-20T02:49:23;95134.19;;;21.98;100.00
13314;BME280;6725;48.112;11.604;2023-07-20T02:51:48;95136.91;;;21.49;100.00
13314;BME280;6725;48.112;11.604;2023-07-20T02:54:14;95145.06;;;21.38;100.00
13314;BME280;6725;48.112;11.604;2023-07-20T02:56:40;95144.00;;;21.36;100.00
13314;BME280;6725;48.112;11.604;2023-07-20T02:59:05;95161.94;;;21.78;100.00
13314;BME280;6725;48.112;11.604;2023-07-20T03:01:31;95169.22;;;21.76;100.00
13314;BME280;6725;48.112;11.604;2023-07-20T03:03:56;95164.88;;;21.60;100.00
13314;BME280;6725;48.112;11.604;2023-07-20T03:06:21;95162.56;;;21.15;100.00
13314;BME280;6725;48.112;11.604;2023-07-20T03:08:47;95152.81;;;20.82;100.00
13314;BME280;6725;48.112;11.604;2023-07-20T03:11:18;95143.06;;;20.48;100.00
13314;BME280;6725;48.112;11.604;2023-07-20T03:13:43;95133.50;;;20.49;100.00
13314;BME280;6725;48.112;11.604;2023-07-20T03:16:10;95144.72;;;20.31;100.00
13314;BME280;6725;48.112;11.604;2023-07-20T03:18:39;95140.16;;;20.19;100.00
13314;BME280;6725;48.112;11.604;2023-07-20T03:21:07;95144.81;;;20.13;100.00
13314;BME280;6725;48.112;11.604;2023-07-20T03:23:33;95138.22;;;20.11;100.00
13314;BME280;6725;48.112;11.604;2023-07-20T03:25:58;95143.41;;;20.09;100.00
13314;BME280;6725;48.112;11.604;2023-07-20T03:28:23;95147.63;;;20.04;100.00
13314;BME280;6725;48.112;11.604;2023-07-20T03:30:58;95159.31;;;20.08;100.00
13314;BME280;6725;48.112;11.604;2023-07-20T03:33:29;95164.53;;;20.06;100.00
13314;BME280;6725;48.112;11.604;2023-07-20T03:35:55;95143.16;;;19.98;100.00
13314;BME280;6725;48.112;11.604;2023-07-20T03:38:21;95148.03;;;19.79;100.00
13314;BME280;6725;48.112;11.604;2023-07-20T03:40:54;95131.16;;;19.68;100.00
13314;BME280;6725;48.112;11.604;2023-07-20T03:43:22;95124.91;;;19.49;100.00
13314;BME280;6725;48.112;11.604;2023-07-20T03:45:47;95117.84;;;19.48;100.00
13314;BME280;6725;48.112;11.604;2023-07-20T03:48:18;95117.75;;;19.34;100.00
13314;BME280;6725;48.112;11.604;2023-07-20T03:50:44;95108.19;;;19.35;100.00
13314;BME280;6725;48.112;11.604;2023-07-20T03:53:11;95109.72;;;19.36;100.00
13314;BME280;6725;48.112;11.604;2023-07-20T03:55:36;95109.72;;;19.36;100.00
13314;BME280;6725;48.112;11.604;2023-07-20T03:58:02;95109.25;;;19.37;100.00
13314;BME280;6725;48.112;11.604;2023-07-20T04:00:28;95119.69;;;19.42;100.00
13314;BME280;6725;48.112;11.604;2023-07-20T04:02:53;95130.03;;;19.42;100.00
13314;BME280;6725;48.112;11.604;2023-07-20T04:05:19;95134.38;;;19.34;100.00
13314;BME280;6725;48.112;11.604;2023-07-20T04:07:44;95129.09;;;19.36;100.00
13314;BME280;6725;48.112;11.604;2023-07-20T04:10:10;95132.47;;;19.40;100.00
13314;BME280;6725;48.112;11.604;2023-07-20T04:12:35;95134.78;;;19.41;100.00
13314;BME280;6725;48.112;11.604;2023-07-20T04:15:01;95135.22;;;19.49;100.00
13314;BME280;6725;48.112;11.604;2023-07-20T04:17:26;95119.50;;;19.55;100.00
13314;BME280;6725;48.112;11.604;2023-07-20T04:19:51;95125.34;;;19.57;100.00
13314;BME280;6725;48.112;11.604;2023-07-20T04:22:17;95130.13;;;19.57;100.00
13314;BME280;6725;48.112;11.604;2023-07-20T04:24:42;95137.34;;;19.54;100.00
13314;BME280;6725;48.112;11.604;2023-07-20T04:27:08;95124.56;;;19.57;100.00
13314;BME280;6725;48.112;11.604;2023-07-20T04:29:33;95130.56;;;19.55;100.00
13314;BME280;6725;48.112;11.604;2023-07-20T04:31:59;95146.13;;;19.52;100.00
13314;BME280;6725;48.112;11.604;2023-07-20T04:34:24;95138.75;;;19.59;100.00
13314;BME280;6725;48.112;11.604;2023-07-20T04:36:49;95141.31;;;19.62;100.00
13314;BME280;6725;48.112;11.604;2023-07-20T04:39:15;95150.25;;;19.66;100.00
13314;BME280;6725;48.112;11.604;2023-07-20T04:41:40;95152.41;;;19.71;100.00
13314;BME280;6725;48.112;11.604;2023-07-20T04:44:05;95155.28;;;19.77;100.00
13314;BME280;6725;48.112;11.604;2023-07-20T04:46:31;95155.13;;;19.80;100.00
13314;BME280;6725;48.112;11.604;2023-07-20T04:48:56;95169.09;;;19.86;100.00
13314;BME280;6725;48.112;11.604;2023-07-20T04:51:21;95166.47;;;19.91;100.00
13314;BME280;6725;48.112;11.604;2023-07-20T04:53:47;95165.53;;;19.94;100.00
13314;BME280;6725;48.112;11.604;2023-07-20T04:56:13;95173.19;;;19.99;100.00
13314;BME280;6725;48.112;11.604;2023-07-20T04:58:38;95182.41;;;20.05;100.00
13314;BME280;6725;48.112;11.604;2023-07-20T05:01:04;95177.63;;;20.15;100.00
13314;BME280;6725;48.112;11.604;2023-07-20T05:03:29;95186.72;;;20.15;100.00
13314;BME280;6725;48.112;11.604;2023-07-20T05:05:54;95187.19;;;20.05;100.00
13314;BME280;6725;48.112;11.604;2023-07-20T05:08:20;95194.31;;;20.29;100.00
13314;BME280;6725;48.112;11.604;2023-07-20T05:10:47;95194.63;;;20.31;100.00
13314;BME280;6725;48.112;11.604;2023-07-20T05:13:12;95199.25;;;20.34;100.00
13314;BME280;6725;48.112;11.604;2023-07-20T05:15:38;95204.22;;;20.30;100.00
13314;BME280;6725;48.112;11.604;2023-07-20T05:18:03;95204.81;;;20.34;100.00
13314;BME280;6725;48.112;11.604;2023-07-20T05:20:29;95205.09;;;20.36;100.00
13314;BME280;6725;48.112;11.604;2023-07-20T05:22:54;95208.75;;;20.42;100.00
13314;BME280;6725;48.112;11.604;2023-07-20T05:25:20;95216.84;;;20.55;100.00
13314;BME280;6725;48.112;11.604;2023-07-20T05:27:47;95213.59;;;20.56;100.00
13314;BME280;6725;48.112;11.604;2023-07-20T05:30:13;95209.06;;;20.44;100.00
13314;BME280;6725;48.112;11.604;2023-07-20T05:32:38;95208.28;;;20.44;100.00
13314;BME280;6725;48.112;11.604;2023-07-20T05:35:04;95213.19;;;20.49;100.00
13314;BME280;6725;48.112;11.604;2023-07-20T05:37:29;95217.16;;;20.57;100.00
13314;BME280;6725;48.112;11.604;2023-07-20T05:39:55;95216.97;;;20.60;100.00
13314;BME280;6725;48.112;11.604;2023-07-20T05:42:20;95222.53;;;20.60;100.00
13314;BME280;6725;48.112;11.604;2023-07-20T05:44:46;95220.34;;;20.64;100.00
13314;BME280;6725;48.112;11.604;2023-07-20T05:47:13;95221.22;;;20.70;100.00
13314;BME280;6725;48.112;11.604;2023-07-20T05:49:38;95222.22;;;20.82;100.00
13314;BME280;6725;48.112;11.604;2023-07-20T05:52:04;95231.00;;;20.80;100.00
13314;BME280;6725;48.112;11.604;2023-07-20T05:54:29;95223.94;;;20.79;100.00
13314;BME280;6725;48.112;11.604;2023-07-20T05:56:55;95232.03;;;20.92;100.00
13314;BME280;6725;48.112;11.604;2023-07-20T05:59:20;95229.31;;;20.83;100.00
13314;BME280;6725;48.112;11.604;2023-07-20T06:01:45;95236.78;;;20.91;100.00
13314;BME280;6725;48.112;11.604;2023-07-20T06:04:13;95236.41;;;21.07;100.00
13314;BME280;6725;48.112;11.604;2023-07-20T06:06:39;95244.38;;;21.14;100.00
13314;BME280;6725;48.112;11.604;2023-07-20T06:09:04;95239.56;;;21.15;100.00
13314;BME280;6725;48.112;11.604;2023-07-20T06:11:32;95238.25;;;21.25;100.00
13314;BME280;6725;48.112;11.604;2023-07-20T06:13:58;95241.19;;;21.45;100.00
13314;BME280;6725;48.112;11.604;2023-07-20T06:16:23;95252.63;;;21.61;100.00
13314;BME280;6725;48.112;11.604;2023-07-20T06:18:49;95251.59;;;21.73;100.00
13314;BME280;6725;48.112;11.604;2023-07-20T06:21:14;95249.47;;;21.97;100.00
13314;BME280;6725;48.112;11.604;2023-07-20T06:23:40;95246.88;;;22.08;100.00
13314;BME280;6725;48.112;11.604;2023-07-20T06:26:06;95247.88;;;22.40;100.00
13314;BME280;6725;48.112;11.604;2023-07-20T06:28:32;95256.09;;;22.64;100.00
13314;BME280;6725;48.112;11.604;2023-07-20T06:31:01;95253.50;;;22.95;100.00
13314;BME280;6725;48.112;11.604;2023-07-20T06:33:27;95255.78;;;23.16;100.00
13314;BME280;6725;48.112;11.604;2023-07-20T06:35:52;95255.44;;;22.89;100.00
13314;BME280;6725;48.112;11.604;2023-07-20T06:38:18;95245.50;;;22.48;100.00
13314;BME280;6725;48.112;11.604;2023-07-20T06:40:46;95241.19;;;22.67;100.00
13314;BME280;6725;48.112;11.604;2023-07-20T06:43:11;95252.06;;;22.65;100.00
13314;BME280;6725;48.112;11.604;2023-07-20T06:45:37;95244.94;;;22.64;100.00
13314;BME280;6725;48.112;11.604;2023-07-20T06:48:02;95247.88;;;22.55;100.00
13314;BME280;6725;48.112;11.604;2023-07-20T06:50:27;95253.28;;;22.29;100.00
13314;BME280;6725;48.112;11.604;2023-07-20T06:52:53;95243.38;;;22.28;100.00
13314;BME280;6725;48.112;11.604;2023-07-20T06:55:18;95244.53;;;22.51;100.00
13314;BME280;6725;48.112;11.604;2023-07-20T06:57:43;95246.94;;;22.98;100.00
13314;BME280;6725;48.112;11.604;2023-07-20T07:00:09;95251.34;;;23.04;100.00
13314;BME280;6725;48.112;11.604;2023-07-20T07:02:35;95259.72;;;24.21;100.00
13314;BME280;6725;48.112;11.604;2023-07-20T07:05:00;95254.75;;;24.67;100.00
13314;BME280;6725;48.112;11.604;2023-07-20T07:07:26;95244.41;;;24.42;100.00
13314;BME280;6725;48.112;11.604;2023-07-20T07:09:52;95243.47;;;24.56;100.00
13314;BME280;6725;48.112;11.604;2023-07-20T07:12:17;95245.34;;;25.12;100.00
13314;BME280;6725;48.112;11.604;2023-07-20T07:14:42;95244.06;;;25.77;95.76
13314;BME280;6725;48.112;11.604;2023-07-20T07:17:08;95251.53;;;26.19;92.77
13314;BME280;6725;48.112;11.604;2023-07-20T07:19:33;95255.25;;;27.09;83.22
13314;BME280;6725;48.112;11.604;2023-07-20T07:21:59;95264.03;;;28.74;74.54
13314;BME280;6725;48.112;11.604;2023-07-20T07:24:24;95255.00;;;29.53;66.13
13314;BME280;6725;48.112;11.604;2023-07-20T07:26:49;95257.56;;;29.93;60.08
13314;BME280;6725;48.112;11.604;2023-07-20T07:29:15;95257.56;;;29.93;60.08
13314;BME280;6725;48.112;11.604;2023-07-20T07:31:40;95255.41;;;31.52;50.54
13314;BME280;6725;48.112;11.604;2023-07-20T07:34:05;95254.66;;;31.38;53.54
13314;BME280;6725;48.112;11.604;2023-07-20T07:36:31;95260.38;;;30.12;54.58
13314;BME280;6725;48.112;11.604;2023-07-20T07:38:57;95268.06;;;30.30;55.36
13314;BME280;6725;48.112;11.604;2023-07-20T07:41:22;95263.25;;;29.03;59.14
13314;BME280;6725;48.112;11.604;2023-07-20T07:43:48;95264.06;;;28.03;64.75
13314;BME280;6725;48.112;11.604;2023-07-20T07:46:13;95262.09;;;27.36;67.73
13314;BME280;6725;48.112;11.604;2023-07-20T07:48:39;95260.25;;;28.01;65.89
13314;BME280;6725;48.112;11.604;2023-07-20T07:51:05;95256.63;;;28.47;64.04
13314;BME280;6725;48.112;11.604;2023-07-20T07:53:30;95271.75;;;27.97;64.84
13314;BME280;6725;48.112;11.604;2023-07-20T07:55:57;95266.97;;;27.81;66.08
13314;BME280;6725;48.112;11.604;2023-07-20T07:58:22;95266.69;;;27.90;67.40
13314;BME280;6725;48.112;11.604;2023-07-20T08:00:48;95264.75;;;27.63;66.24
13314;BME280;6725;48.112;11.604;2023-07-20T08:03:13;95273.97;;;27.64;67.31
13314;BME280;6725;48.112;11.604;2023-07-20T08:05:39;95269.03;;;27.07;68.01
13314;BME280;6725;48.112;11.604;2023-07-20T08:08:04;95265.75;;;26.87;71.86
13314;BME280;6725;48.112;11.604;2023-07-20T08:10:30;95261.09;;;27.28;69.61
13314;BME280;6725;48.112;11.604;2023-07-20T08:12:56;95264.44;;;27.15;70.32
13314;BME280;6725;48.112;11.604;2023-07-20T08:15:21;95274.09;;;27.88;68.93
13314;BME280;6725;48.112;11.604;2023-07-20T08:17:47;95267.84;;;28.47;66.45
13314;BME280;6725;48.112;11.604;2023-07-20T08:20:13;95273.28;;;27.93;68.78
13314;BME280;6725;48.112;11.604;2023-07-20T08:22:39;95270.72;;;28.00;70.51
13314;BME280;6725;48.112;11.604;2023-07-20T08:25:06;95263.72;;;28.77;64.53
13314;BME280;6725;48.112;11.604;2023-07-20T08:27:31;95256.75;;;29.13;60.82
13314;BME280;6725;48.112;11.604;2023-07-20T08:29:57;95269.94;;;29.24;60.90
13314;BME280;6725;48.112;11.604;2023-07-20T08:32:22;95269.50;;;28.61;64.41
13314;BME280;6725;48.112;11.604;2023-07-20T08:34:47;95280.97;;;27.92;67.90
13314;BME280;6725;48.112;11.604;2023-07-20T08:37:13;95274.41;;;27.73;68.11
13314;BME280;6725;48.112;11.604;2023-07-20T08:39:38;95275.63;;;27.26;73.30
13314;BME280;6725;48.112;11.604;2023-07-20T08:42:04;95270.47;;;27.41;73.60
13314;BME280;6725;48.112;11.604;2023-07-20T08:44:35;95264.44;;;28.83;66.37
13314;BME280;6725;48.112;11.604;2023-07-20T08:47:02;95264.34;;;30.03;60.80
13314;BME280;6725;48.112;11.604;2023-07-20T08:49:34;95270.63;;;29.72;60.97
13314;BME280;6725;48.112;11.604;2023-07-20T08:51:59;95272.31;;;29.81;59.64
13314;BME280;6725;48.112;11.604;2023-07-20T08:54:28;95270.22;;;29.44;61.15
13314;BME280;6725;48.112;11.604;2023-07-20T08:56:56;95266.09;;;29.88;58.97
13314;BME280;6725;48.112;11.604;2023-07-20T08:59:23;95269.97;;;29.85;58.53
13314;BME280;6725;48.112;11.604;2023-07-20T09:01:50;95268.75;;;29.80;57.15
13314;BME280;6725;48.112;11.604;2023-07-20T09:04:17;95265.06;;;29.67;57.21
13314;BME280;6725;48.112;11.604;2023-07-20T09:06:42;95268.44;;;30.39;58.37
13314;BME280;6725;48.112;11.604;2023-07-20T09:09:08;95266.16;;;30.01;56.10
13314;BME280;6725;48.112;11.604;2023-07-20T09:11:33;95262.41;;;31.06;54.12
13314;BME280;6725;48.112;11.604;2023-07-20T09:14:17;95267.25;;;31.37;51.70
13314;BME280;6725;48.112;11.604;2023-07-20T09:16:55;95261.66;;;30.92;52.30
13314;BME280;6725;48.112;11.604;2023-07-20T09:19:21;95249.63;;;31.18;52.73
13314;BME280;6725;48.112;11.604;2023-07-20T09:21:51;95253.63;;;32.34;48.41
13314;BME280;6725;48.112;11.604;2023-07-20T09:24:18;95247.28;;;33.31;45.52
13314;BME280;6725;48.112;11.604;2023-07-20T09:26:45;95244.72;;;33.40;45.09
13314;BME280;6725;48.112;11.604;2023-07-20T09:29:13;95243.88;;;33.25;45.27
13314;BME280;6725;48.112;11.604;2023-07-20T09:31:39;95243.13;;;33.96;43.20
13314;BME280;6725;48.112;11.604;2023-07-20T09:34:06;95239.16;;;34.57;39.98
13314;BME280;6725;48.112;11.604;2023-07-20T09:36:35;95244.47;;;34.68;38.96
13314;BME280;6725;48.112;11.604;2023-07-20T09:39:02;95242.19;;;34.44;39.23
13314;BME280;6725;48.112;11.604;2023-07-20T09:41:29;95244.56;;;33.46;41.54
13314;BME280;6725;48.112;11.604;2023-07-20T09:43:54;95248.81;;;32.42;43.83
13314;BME280;6725;48.112;11.604;2023-07-20T09:46:20;95249.28;;;32.54;44.83
13314;BME280;6725;48.112;11.604;2023-07-20T09:48:54;95251.41;;;32.40;44.87
13314;BME280;6725;48.112;11.604;2023-07-20T09:51:22;95243.50;;;33.56;43.10
13314;BME280;6725;48.112;11.604;2023-07-20T09:53:49;95251.84;;;32.85;42.17
13314;BME280;6725;48.112;11.604;2023-07-20T09:56:16;95242.56;;;31.90;45.25
13314;BME280;6725;48.112;11.604;2023-07-20T09:58:43;95240.09;;;31.47;47.12
13314;BME280;6725;48.112;11.604;2023-07-20T10:01:12;95229.25;;;31.25;47.97
13314;BME280;6725;48.112;11.604;2023-07-20T10:03:41;95237.91;;;31.14;49.28
13314;BME280;6725;48.112;11.604;2023-07-20T10:06:13;95238.66;;;31.54;48.72
13314;BME280;6725;48.112;11.604;2023-07-20T10:08:41;95242.75;;;31.00;47.80
13314;BME280;6725;48.112;11.604;2023-07-20T10:11:08;95242.09;;;29.81;54.64
13314;BME280;6725;48.112;11.604;2023-07-20T10:13:37;95234.16;;;29.61;55.73
13314;BME280;6725;48.112;11.604;2023-07-20T10:16:07;95241.72;;;30.09;53.70
13314;BME280;6725;48.112;11.604;2023-07-20T10:18:42;95244.72;;;30.61;52.61
13314;BME280;6725;48.112;11.604;2023-07-20T10:21:11;95237.09;;;29.93;53.32
13314;BME280;6725;48.112;11.604;2023-07-20T10:23:38;95234.19;;;30.17;53.30
13314;BME280;6725;48.112;11.604;2023-07-20T10:26:04;95235.59;;;30.23;55.13
13314;BME280;6725;48.112;11.604;2023-07-20T10:28:30;95235.06;;;30.25;56.44
13314;BME280;6725;48.112;11.604;2023-07-20T10:30:56;95226.50;;;29.62;55.59
13314;BME280;6725;48.112;11.604;2023-07-20T10:33:21;95230.72;;;29.50;57.74
13314;BME280;6725;48.112;11.604;2023-07-20T10:36:00;95225.84;;;29.08;59.11
13314;BME280;6725;48.112;11.604;2023-07-20T10:41:20;95214.31;;;30.41;57.02
13314;BME280;6725;48.112;11.604;2023-07-20T10:43:46;95208.88;;;31.79;51.37
13314;BME280;6725;48.112;11.604;2023-07-20T10:46:12;95209.13;;;32.01;48.27
13314;BME280;6725;48.112;11.604;2023-07-20T10:49:00;95212.59;;;32.07;49.85
13314;BME280;6725;48.112;11.604;2023-07-20T10:51:27;95210.03;;;32.50;45.76
13314;BME280;6725;48.112;11.604;2023-07-20T10:53:55;95211.94;;;32.96;44.68
13314;BME280;6725;48.112;11.604;2023-07-20T10:56:23;95213.00;;;32.86;45.17
13314;BME280;6725;48.112;11.604;2023-07-20T10:58:55;95209.09;;;33.24;45.10
13314;BME280;6725;48.112;11.604;2023-07-20T11:01:27;95212.63;;;32.28;46.44
13314;BME280;6725;48.112;11.604;2023-07-20T11:03:57;95215.31;;;31.53;49.36
13314;BME280;6725;48.112;11.604;2023-07-20T11:08:56;95212.19;;;32.57;46.13
13314;BME280;6725;48.112;11.604;2023-07-20T11:11:27;95204.59;;;33.01;45.46
13314;BME280;6725;48.112;11.604;2023-07-20T11:14:00;95198.28;;;33.43;42.20
13314;BME280;6725;48.112;11.604;2023-07-20T11:19:01;95196.59;;;32.30;47.31
13314;BME280;6725;48.112;11.604;2023-07-20T11:21:26;95200.09;;;31.56;50.28
13314;BME280;6725;48.112;11.604;2023-07-20T11:23:52;95199.34;;;30.90;51.50
13314;BME280;6725;48.112;11.604;2023-07-20T11:26:18;95196.81;;;29.61;54.96
13314;BME280;6725;48.112;11.604;2023-07-20T11:28:48;95195.44;;;29.06;58.33
13314;BME280;6725;48.112;11.604;2023-07-20T11:31:14;95195.88;;;29.10;59.87
13314;BME280;6725;48.112;11.604;2023-07-20T11:33:42;95188.22;;;28.87;57.55
13314;BME280;6725;48.112;11.604;2023-07-20T11:36:08;95183.66;;;28.84;60.70
13314;BME280;6725;48.112;11.604;2023-07-20T11:38:34;95186.47;;;29.08;59.17
13314;BME280;6725;48.112;11.604;2023-07-20T11:40:59;95191.16;;;28.76;60.05
13314;BME280;6725;48.112;11.604;2023-07-20T11:43:24;95190.22;;;28.92;60.37
13314;BME280;6725;48.112;11.604;2023-07-20T11:45:51;95186.88;;;29.36;60.22
13314;BME280;6725;48.112;11.604;2023-07-20T11:48:17;95192.09;;;29.69;56.66
13314;BME280;6725;48.112;11.604;2023-07-20T11:50:42;95184.88;;;29.73;54.47
13314;BME280;6725;48.112;11.604;2023-07-20T11:53:08;95171.13;;;30.33;52.33
13314;BME280;6725;48.112;11.604;2023-07-20T11:55:34;95174.13;;;30.22;52.96
13314;BME280;6725;48.112;11.604;2023-07-20T11:58:06;95166.41;;;29.91;55.14
13314;BME280;6725;48.112;11.604;2023-07-20T12:00:33;95168.53;;;29.85;54.93
13314;BME280;6725;48.112;11.604;2023-07-20T12:02:59;95158.88;;;29.43;55.70
13314;BME280;6725;48.112;11.604;2023-07-20T12:05:25;95155.53;;;28.84;57.30
13314;BME280;6725;48.112;11.604;2023-07-20T12:07:51;95159.28;;;28.68;59.43
13314;BME280;6725;48.112;11.604;2023-07-20T12:10:26;95155.88;;;28.51;60.22
13314;BME280;6725;48.112;11.604;2023-07-20T12:12:52;95151.72;;;28.27;62.15
13314;BME280;6725;48.112;11.604;2023-07-20T12:15:25;95151.72;;;28.57;61.73
13314;BME280;6725;48.112;11.604;2023-07-20T12:17:56;95148.91;;;28.27;61.75
13314;BME280;6725;48.112;11.604;2023-07-20T12:20:29;95145.69;;;28.48;62.33
13314;BME280;6725;48.112;11.604;2023-07-20T12:23:03;95142.72;;;28.34;62.14
13314;BME280;6725;48.112;11.604;2023-07-20T12:25:48;95136.34;;;28.04;65.77
13314;BME280;6725;48.112;11.604;2023-07-20T12:28:18;95137.25;;;28.48;65.38
13314;BME280;6725;48.112;11.604;2023-07-20T12:30:45;95134.78;;;28.63;62.90
13314;BME280;6725;48.112;11.604;2023-07-20T12:33:11;95126.47;;;28.52;63.29
13314;BME280;6725;48.112;11.604;2023-07-20T12:35:45;95130.22;;;28.60;62.89
13314;BME280;6725;48.112;11.604;2023-07-20T12:38:11;95113.59;;;28.62;64.16
13314;BME280;6725;48.112;11.604;2023-07-20T12:40:36;95114.03;;;28.42;63.04
13314;BME280;6725;48.112;11.604;2023-07-20T12:43:01;95117.66;;;28.37;65.11
13314;BME280;6725;48.112;11.604;2023-07-20T12:45:27;95118.94;;;28.11;64.95
13314;BME280;6725;48.112;11.604;2023-07-20T12:47:52;95112.84;;;27.72;67.10
13314;BME280;6725;48.112;11.604;2023-07-20T12:50:17;95109.00;;;28.10;65.94
13314;BME280;6725;48.112;11.604;2023-07-20T12:52:43;95112.00;;;27.88;64.16
13314;BME280;6725;48.112;11.604;2023-07-20T12:55:09;95112.94;;;27.96;65.04
13314;BME280;6725;48.112;11.604;2023-07-20T12:57:36;95103.69;;;27.72;66.41
13314;BME280;6725;48.112;11.604;2023-07-20T13:00:06;95102.22;;;28.24;65.88
13314;BME280;6725;48.112;11.604;2023-07-20T13:02:35;95107.53;;;27.69;67.01
13314;BME280;6725;48.112;11.604;2023-07-20T13:05:01;95099.84;;;28.04;67.02
13314;BME280;6725;48.112;11.604;2023-07-20T13:09:57;95099.53;;;28.62;63.36